createdAt,value
2022-11-26T00:00:13.793Z,1008.37
2022-11-26T00:01:13.822Z,1008.34
2022-11-26T00:02:14.094Z,1008.37
2022-11-26T00:03:13.177Z,1008.37
2022-11-26T00:04:13.489Z,1008.38
2022-11-26T00:05:14.685Z,1008.39
2022-11-26T00:06:13.539Z,1008.37
2022-11-26T00:07:15.195Z,1008.39
2022-11-26T00:08:13.529Z,1008.40
2022-11-26T00:09:13.692Z,1008.42
2022-11-26T00:10:13.760Z,1008.41
2022-11-26T00:11:13.732Z,1008.42
2022-11-26T00:12:13.978Z,1008.42
2022-11-26T00:13:12.955Z,1008.44
2022-11-26T00:14:18.022Z,1008.48
2022-11-26T00:15:13.280Z,1008.44
2022-11-26T00:16:13.524Z,1008.46
2022-11-26T00:17:13.879Z,1008.45
2022-11-26T00:18:13.829Z,1008.47
2022-11-26T00:19:13.971Z,1008.48
2022-11-26T00:20:12.912Z,1008.49
2022-11-26T00:21:12.820Z,1008.48
2022-11-26T00:22:14.605Z,1008.49
2022-11-26T00:23:13.684Z,1008.50
2022-11-26T00:24:13.752Z,1008.49
2022-11-26T00:25:18.791Z,1008.54
2022-11-26T00:26:13.807Z,1008.53
2022-11-26T00:27:13.923Z,1008.56
2022-11-26T00:28:12.873Z,1008.60
2022-11-26T00:29:13.805Z,1008.58
2022-11-26T00:30:48.919Z,1008.57
2022-11-26T00:31:13.018Z,1008.57
2022-11-26T00:32:13.188Z,1008.57
2022-11-26T00:33:13.367Z,1008.61
2022-11-26T00:34:13.326Z,1008.59
2022-11-26T00:35:13.519Z,1008.62
2022-11-26T00:36:33.715Z,1008.66
2022-11-26T00:37:13.544Z,1008.64
2022-11-26T00:39:13.909Z,1008.66
2022-11-26T00:40:13.977Z,1008.69
2022-11-26T00:41:13.013Z,1008.70
2022-11-26T00:42:13.155Z,1008.74
2022-11-26T00:43:13.065Z,1008.75
2022-11-26T00:44:13.237Z,1008.80
2022-11-26T00:45:19.321Z,1008.81
2022-11-26T00:46:45.702Z,1008.85
2022-11-26T00:47:13.884Z,1008.88
2022-11-26T00:48:12.931Z,1008.82
2022-11-26T00:49:12.868Z,1008.83
2022-11-26T00:50:13.869Z,1008.81
2022-11-26T00:51:13.822Z,1008.84
2022-11-26T00:52:13.981Z,1008.85
2022-11-26T00:53:12.909Z,1008.84
2022-11-26T00:54:12.828Z,1008.84
2022-11-26T00:55:14.036Z,1008.85
2022-11-26T00:56:12.974Z,1008.84
2022-11-26T00:57:13.297Z,1008.81
2022-11-26T00:58:13.408Z,1008.83
2022-11-26T00:59:13.513Z,1008.87
2022-11-26T01:00:13.576Z,1008.86
2022-11-26T01:01:13.726Z,1008.89
2022-11-26T01:02:13.861Z,1008.85
2022-11-26T01:03:13.766Z,1008.86
2022-11-26T01:04:13.690Z,1008.92
2022-11-26T01:05:13.632Z,1008.93
2022-11-26T01:06:13.758Z,1008.96
2022-11-26T01:07:13.905Z,1009.00
2022-11-26T01:08:12.997Z,1009.02
2022-11-26T01:09:13.072Z,1009.05
2022-11-26T01:10:33.193Z,1009.09
2022-11-26T01:11:13.117Z,1009.07
2022-11-26T01:12:13.411Z,1009.12
2022-11-26T01:13:13.896Z,1009.08
2022-11-26T01:14:24.030Z,1009.09
2022-11-26T01:15:13.217Z,1009.16
2022-11-26T01:16:13.668Z,1009.14
2022-11-26T01:17:13.899Z,1009.15
2022-11-26T01:18:12.970Z,1009.18
2022-11-26T01:19:13.149Z,1009.17
2022-11-26T01:20:13.578Z,1009.20
2022-11-26T01:21:13.990Z,1009.24
2022-11-26T01:22:12.835Z,1009.23
2022-11-26T01:23:14.071Z,1009.24
2022-11-26T01:24:13.442Z,1009.27
2022-11-26T01:25:13.445Z,1009.26
2022-11-26T01:26:13.312Z,1009.26
2022-11-26T01:27:13.184Z,1009.28
2022-11-26T01:28:13.139Z,1009.26
2022-11-26T01:29:13.143Z,1009.26
2022-11-26T01:30:43.301Z,1009.24
2022-11-26T01:31:13.192Z,1009.27
2022-11-26T01:32:13.406Z,1009.30
2022-11-26T01:33:13.511Z,1009.33
2022-11-26T01:34:13.697Z,1009.31
2022-11-26T01:35:14.268Z,1009.35
2022-11-26T01:36:13.500Z,1009.38
2022-11-26T01:37:13.883Z,1009.40
2022-11-26T01:38:13.923Z,1009.42
2022-11-26T01:39:13.265Z,1009.43
2022-11-26T01:40:13.549Z,1009.43
2022-11-26T01:41:13.812Z,1009.42
2022-11-26T01:42:13.711Z,1009.42
2022-11-26T01:43:13.689Z,1009.42
2022-11-26T01:44:13.682Z,1009.45
2022-11-26T01:45:13.993Z,1009.50
2022-11-26T01:46:13.079Z,1009.50
2022-11-26T01:47:13.147Z,1009.50
2022-11-26T01:48:13.373Z,1009.54
2022-11-26T01:49:13.502Z,1009.54
2022-11-26T01:50:13.560Z,1009.57
2022-11-26T01:51:18.833Z,1009.55
2022-11-26T01:52:13.790Z,1009.59
2022-11-26T01:53:13.670Z,1009.57
2022-11-26T01:54:13.780Z,1009.55
2022-11-26T01:55:13.815Z,1009.56
2022-11-26T01:56:13.795Z,1009.54
2022-11-26T01:57:18.966Z,1009.55
2022-11-26T01:59:12.792Z,1009.51
2022-11-26T02:00:13.871Z,1009.52
2022-11-26T02:01:13.984Z,1009.54
2022-11-26T02:02:13.333Z,1009.53
2022-11-26T02:03:13.692Z,1009.51
2022-11-26T02:04:14.139Z,1009.49
2022-11-26T02:05:13.085Z,1009.48
2022-11-26T02:06:13.219Z,1009.46
2022-11-26T02:07:13.181Z,1009.49
2022-11-26T02:08:33.220Z,1009.51
2022-11-26T02:09:13.658Z,1009.55
2022-11-26T02:10:13.686Z,1009.50
2022-11-26T02:11:13.687Z,1009.53
2022-11-26T02:12:14.145Z,1009.55
2022-11-26T02:13:13.437Z,1009.51
2022-11-26T02:14:13.442Z,1009.53
2022-11-26T02:15:13.335Z,1009.54
2022-11-26T02:16:13.267Z,1009.57
2022-11-26T02:17:13.277Z,1009.60
2022-11-26T02:18:13.359Z,1009.57
2022-11-26T02:19:13.269Z,1009.64
2022-11-26T02:20:13.117Z,1009.62
2022-11-26T02:21:13.017Z,1009.61
2022-11-26T02:22:35.286Z,1009.65
2022-11-26T02:23:13.222Z,1009.64
2022-11-26T02:24:14.174Z,1009.60
2022-11-26T02:25:13.155Z,1009.55
2022-11-26T02:26:13.035Z,1009.58
2022-11-26T02:27:13.038Z,1009.60
2022-11-26T02:28:13.074Z,1009.59
2022-11-26T02:29:12.994Z,1009.60
2022-11-26T02:30:12.910Z,1009.62
2022-11-26T02:31:13.473Z,1009.59
2022-11-26T02:32:13.441Z,1009.62
2022-11-26T02:33:13.576Z,1009.59
2022-11-26T02:34:13.417Z,1009.61
2022-11-26T02:35:14.716Z,1009.63
2022-11-26T02:36:14.162Z,1009.61
2022-11-26T02:37:13.205Z,1009.62
2022-11-26T02:38:13.319Z,1009.60
2022-11-26T02:39:13.510Z,1009.62
2022-11-26T02:40:13.452Z,1009.63
2022-11-26T02:41:13.690Z,1009.63
2022-11-26T02:42:14.115Z,1009.61
2022-11-26T02:43:13.234Z,1009.59
2022-11-26T02:44:13.914Z,1009.61
2022-11-26T02:45:13.025Z,1009.56
2022-11-26T02:46:13.190Z,1009.52
2022-11-26T02:47:13.086Z,1009.52
2022-11-26T02:49:13.058Z,1009.54
2022-11-26T02:50:13.019Z,1009.54
2022-11-26T02:51:12.922Z,1009.55
2022-11-26T02:52:13.106Z,1009.54
2022-11-26T02:53:13.113Z,1009.55
2022-11-26T02:54:13.251Z,1009.55
2022-11-26T02:55:13.158Z,1009.56
2022-11-26T02:56:13.481Z,1009.57
2022-11-26T02:57:13.768Z,1009.57
2022-11-26T02:58:13.837Z,1009.53
2022-11-26T02:59:13.722Z,1009.56
2022-11-26T03:00:13.876Z,1009.52
2022-11-26T03:01:13.828Z,1009.53
2022-11-26T03:02:13.920Z,1009.50
2022-11-26T03:04:13.983Z,1009.48
2022-11-26T03:05:12.958Z,1009.50
2022-11-26T03:06:33.071Z,1009.47
2022-11-26T03:07:13.068Z,1009.44
2022-11-26T03:08:47.521Z,1009.42
2022-11-26T03:09:13.420Z,1009.42
2022-11-26T03:10:13.296Z,1009.36
2022-11-26T03:12:13.199Z,1009.38
2022-11-26T03:13:13.973Z,1009.35
2022-11-26T03:14:13.023Z,1009.34
2022-11-26T03:15:13.026Z,1009.32
2022-11-26T03:16:12.988Z,1009.32
2022-11-26T03:17:12.974Z,1009.35
2022-11-26T03:18:13.130Z,1009.34
2022-11-26T03:19:13.129Z,1009.33
2022-11-26T03:20:21.840Z,1009.37
2022-11-26T03:21:14.099Z,1009.39
2022-11-26T03:22:13.384Z,1009.44
2022-11-26T03:23:13.286Z,1009.40
2022-11-26T03:25:13.127Z,1009.39
2022-11-26T03:26:13.108Z,1009.37
2022-11-26T03:27:13.261Z,1009.39
2022-11-26T03:28:13.255Z,1009.42
2022-11-26T03:29:13.673Z,1009.38
2022-11-26T03:30:13.637Z,1009.39
2022-11-26T03:31:13.550Z,1009.40
2022-11-26T03:32:38.868Z,1009.43
2022-11-26T03:33:19.312Z,1009.41
2022-11-26T03:34:30.359Z,1009.45
2022-11-26T03:35:13.621Z,1009.48
2022-11-26T03:36:13.568Z,1009.47
2022-11-26T03:37:13.562Z,1009.47
2022-11-26T03:38:13.842Z,1009.47
2022-11-26T03:39:14.259Z,1009.50
2022-11-26T03:40:18.375Z,1009.53
2022-11-26T03:41:13.429Z,1009.53
2022-11-26T03:42:13.462Z,1009.53
2022-11-26T03:43:27.934Z,1009.58
2022-11-26T03:44:13.084Z,1009.57
2022-11-26T03:45:13.443Z,1009.58
2022-11-26T03:46:26.448Z,1009.61
2022-11-26T03:47:15.236Z,1009.59
2022-11-26T03:48:13.579Z,1009.58
2022-11-26T03:49:18.904Z,1009.58
2022-11-26T03:50:12.821Z,1009.58
2022-11-26T03:51:24.647Z,1009.61
2022-11-26T03:52:13.791Z,1009.62
2022-11-26T03:53:13.706Z,1009.62
2022-11-26T03:54:13.886Z,1009.65
2022-11-26T03:55:13.920Z,1009.67
2022-11-26T03:56:12.863Z,1009.65
2022-11-26T03:57:14.044Z,1009.64
2022-11-26T03:58:13.265Z,1009.67
2022-11-26T03:59:40.604Z,1009.67
2022-11-26T04:00:22.737Z,1009.69
2022-11-26T04:01:31.751Z,1009.73
2022-11-26T04:02:14.112Z,1009.73
2022-11-26T04:03:13.122Z,1009.77
2022-11-26T04:04:13.232Z,1009.79
2022-11-26T04:05:13.308Z,1009.79
2022-11-26T04:06:13.180Z,1009.78
2022-11-26T04:07:13.326Z,1009.79
2022-11-26T04:08:18.244Z,1009.81
2022-11-26T04:09:13.121Z,1009.80
2022-11-26T04:10:13.089Z,1009.80
2022-11-26T04:11:13.398Z,1009.84
2022-11-26T04:12:13.362Z,1009.84
2022-11-26T04:13:13.388Z,1009.89
2022-11-26T04:14:13.613Z,1009.86
2022-11-26T04:15:13.590Z,1009.90
2022-11-26T04:16:13.569Z,1009.96
2022-11-26T04:17:13.889Z,1009.96
2022-11-26T04:18:13.008Z,1009.97
2022-11-26T04:19:45.120Z,1009.97
2022-11-26T04:20:13.339Z,1009.99
2022-11-26T04:21:13.189Z,1010.04
2022-11-26T04:22:13.128Z,1010.04
2022-11-26T04:23:13.398Z,1010.06
2022-11-26T04:25:09.268Z,1010.12
2022-11-26T04:25:19.287Z,1010.12
2022-11-26T04:26:13.150Z,1010.13
2022-11-26T04:27:13.086Z,1010.12
2022-11-26T04:28:18.182Z,1010.17
2022-11-26T04:29:13.271Z,1010.22
2022-11-26T04:30:13.205Z,1010.14
2022-11-26T04:31:13.216Z,1010.23
2022-11-26T04:32:13.131Z,1010.21
2022-11-26T04:33:13.194Z,1010.21
2022-11-26T04:34:23.251Z,1010.28
2022-11-26T04:35:18.403Z,1010.25
2022-11-26T04:36:13.324Z,1010.25
2022-11-26T04:37:13.335Z,1010.26
2022-11-26T04:38:13.404Z,1010.29
2022-11-26T04:39:13.462Z,1010.27
2022-11-26T04:41:13.265Z,1010.35
2022-11-26T04:42:13.691Z,1010.33
2022-11-26T04:43:13.676Z,1010.34
2022-11-26T04:44:13.882Z,1010.38
2022-11-26T04:45:13.822Z,1010.41
2022-11-26T04:46:14.016Z,1010.43
2022-11-26T04:47:12.927Z,1010.42
2022-11-26T04:48:12.884Z,1010.48
2022-11-26T04:49:14.188Z,1010.45
2022-11-26T04:50:13.354Z,1010.48
2022-11-26T04:51:13.452Z,1010.46
2022-11-26T04:52:13.335Z,1010.47
2022-11-26T04:53:14.730Z,1010.48
2022-11-26T04:54:13.989Z,1010.49
2022-11-26T04:55:13.077Z,1010.48
2022-11-26T04:56:12.990Z,1010.50
2022-11-26T04:57:12.990Z,1010.50
2022-11-26T04:58:13.126Z,1010.53
2022-11-26T04:59:18.297Z,1010.53
2022-11-26T05:00:13.280Z,1010.53
2022-11-26T05:01:13.659Z,1010.53
2022-11-26T05:02:13.855Z,1010.52
2022-11-26T05:03:12.988Z,1010.50
2022-11-26T05:04:13.329Z,1010.53
2022-11-26T05:06:13.063Z,1010.59
2022-11-26T05:07:12.951Z,1010.62
2022-11-26T05:08:26.998Z,1010.67
2022-11-26T05:09:25.238Z,1010.69
2022-11-26T05:11:33.833Z,1010.73
2022-11-26T05:12:19.905Z,1010.75
2022-11-26T05:13:43.548Z,1010.75
2022-11-26T05:14:13.581Z,1010.77
2022-11-26T05:15:13.833Z,1010.79
2022-11-26T05:16:23.886Z,1010.77
2022-11-26T05:17:12.842Z,1010.77
2022-11-26T05:18:35.850Z,1010.80
2022-11-26T05:19:14.167Z,1010.84
2022-11-26T05:20:13.044Z,1010.84
2022-11-26T05:21:18.046Z,1010.84
2022-11-26T05:22:23.081Z,1010.83
2022-11-26T05:23:30.243Z,1010.81
2022-11-26T05:24:13.990Z,1010.81
2022-11-26T05:25:18.222Z,1010.78
2022-11-26T05:26:13.355Z,1010.82
2022-11-26T05:27:30.801Z,1010.81
2022-11-26T05:28:14.111Z,1010.77
2022-11-26T05:29:28.549Z,1010.81
2022-11-26T05:30:13.740Z,1010.80
2022-11-26T05:31:14.009Z,1010.78
2022-11-26T05:32:13.070Z,1010.85
2022-11-26T05:33:13.197Z,1010.77
2022-11-26T05:34:13.240Z,1010.82
2022-11-26T05:35:13.451Z,1010.86
2022-11-26T05:36:13.533Z,1010.84
2022-11-26T05:37:13.574Z,1010.86
2022-11-26T05:38:13.549Z,1010.82
2022-11-26T05:39:13.813Z,1010.82
2022-11-26T05:40:13.780Z,1010.88
2022-11-26T05:41:21.286Z,1010.87
2022-11-26T05:42:13.261Z,1010.85
2022-11-26T05:43:13.135Z,1010.84
2022-11-26T05:44:13.139Z,1010.90
2022-11-26T05:45:13.148Z,1010.87
2022-11-26T05:46:13.151Z,1010.91
2022-11-26T05:47:13.182Z,1010.95
2022-11-26T05:48:13.084Z,1010.94
2022-11-26T05:49:13.039Z,1010.99
2022-11-26T05:50:12.899Z,1010.97
2022-11-26T05:51:13.054Z,1010.95
2022-11-26T05:52:13.193Z,1010.95
2022-11-26T05:53:13.240Z,1010.99
2022-11-26T05:54:13.413Z,1010.98
2022-11-26T05:55:13.635Z,1011.00
2022-11-26T05:56:58.511Z,1011.05
2022-11-26T05:57:12.460Z,1011.07
2022-11-26T05:58:13.277Z,1011.05
2022-11-26T06:00:12.848Z,1011.01
2022-11-26T06:01:27.925Z,1010.99
2022-11-26T06:02:13.611Z,1011.00
2022-11-26T06:03:18.481Z,1011.01
2022-11-26T06:04:13.275Z,1011.02
2022-11-26T06:05:13.542Z,1011.00
2022-11-26T06:06:13.419Z,1010.98
2022-11-26T06:07:13.328Z,1011.01
2022-11-26T06:08:13.284Z,1011.01
2022-11-26T06:09:13.147Z,1010.99
2022-11-26T06:10:13.113Z,1011.04
2022-11-26T06:11:13.295Z,1011.01
2022-11-26T06:12:13.129Z,1011.05
2022-11-26T06:13:14.266Z,1011.05
2022-11-26T06:14:13.752Z,1011.08
2022-11-26T06:15:14.281Z,1011.05
2022-11-26T06:16:13.566Z,1011.08
2022-11-26T06:17:14.128Z,1011.08
2022-11-26T06:18:13.139Z,1011.15
2022-11-26T06:19:13.123Z,1011.17
2022-11-26T06:20:13.086Z,1011.16
2022-11-26T06:21:13.098Z,1011.16
2022-11-26T06:22:13.199Z,1011.14
2022-11-26T06:23:13.143Z,1011.17
2022-11-26T06:24:13.074Z,1011.19
2022-11-26T06:25:13.101Z,1011.18
2022-11-26T06:26:13.098Z,1011.18
2022-11-26T06:27:13.057Z,1011.23
2022-11-26T06:28:13.000Z,1011.27
2022-11-26T06:29:12.979Z,1011.30
2022-11-26T06:30:12.874Z,1011.34
2022-11-26T06:31:14.024Z,1011.32
2022-11-26T06:32:13.246Z,1011.34
2022-11-26T06:33:13.213Z,1011.32
2022-11-26T06:34:13.300Z,1011.33
2022-11-26T06:35:13.290Z,1011.29
2022-11-26T06:36:13.195Z,1011.28
2022-11-26T06:37:13.091Z,1011.30
2022-11-26T06:38:13.136Z,1011.28
2022-11-26T06:39:13.030Z,1011.27
2022-11-26T06:40:12.977Z,1011.31
2022-11-26T06:41:14.054Z,1011.36
2022-11-26T06:42:13.555Z,1011.33
2022-11-26T06:43:13.448Z,1011.35
2022-11-26T06:44:13.675Z,1011.40
2022-11-26T06:45:13.584Z,1011.38
2022-11-26T06:46:13.928Z,1011.34
2022-11-26T06:47:12.898Z,1011.36
2022-11-26T06:48:12.965Z,1011.33
2022-11-26T06:49:13.160Z,1011.35
2022-11-26T06:50:13.249Z,1011.38
2022-11-26T06:51:13.150Z,1011.40
2022-11-26T06:52:13.569Z,1011.39
2022-11-26T06:53:13.488Z,1011.43
2022-11-26T06:54:13.658Z,1011.43
2022-11-26T06:55:13.667Z,1011.42
2022-11-26T06:56:18.504Z,1011.44
2022-11-26T06:57:12.985Z,1011.43
2022-11-26T06:58:12.857Z,1011.43
2022-11-26T06:59:14.015Z,1011.42
2022-11-26T07:00:12.975Z,1011.42
2022-11-26T07:01:13.341Z,1011.41
2022-11-26T07:02:13.807Z,1011.42
2022-11-26T07:03:13.733Z,1011.40
2022-11-26T07:04:13.702Z,1011.44
2022-11-26T07:05:13.672Z,1011.44
2022-11-26T07:06:13.533Z,1011.39
2022-11-26T07:07:13.549Z,1011.41
2022-11-26T07:08:13.657Z,1011.43
2022-11-26T07:09:13.460Z,1011.45
2022-11-26T07:10:13.286Z,1011.46
2022-11-26T07:11:13.269Z,1011.47
2022-11-26T07:12:13.210Z,1011.50
2022-11-26T07:13:13.112Z,1011.54
2022-11-26T07:14:13.213Z,1011.54
2022-11-26T07:15:13.254Z,1011.56
2022-11-26T07:16:13.423Z,1011.58
2022-11-26T07:17:13.305Z,1011.57
2022-11-26T07:18:14.430Z,1011.57
2022-11-26T07:19:13.372Z,1011.58
2022-11-26T07:20:13.363Z,1011.57
2022-11-26T07:21:13.277Z,1011.62
2022-11-26T07:22:13.159Z,1011.63
2022-11-26T07:23:13.287Z,1011.56
2022-11-26T07:24:13.186Z,1011.63
2022-11-26T07:25:13.215Z,1011.61
2022-11-26T07:26:13.394Z,1011.63
2022-11-26T07:27:13.472Z,1011.62
2022-11-26T07:28:13.814Z,1011.63
2022-11-26T07:29:13.857Z,1011.64
2022-11-26T07:30:13.952Z,1011.66
2022-11-26T07:31:16.159Z,1011.65
2022-11-26T07:32:13.732Z,1011.64
2022-11-26T07:33:13.661Z,1011.60
2022-11-26T07:34:13.596Z,1011.63
2022-11-26T07:35:13.723Z,1011.61
2022-11-26T07:36:13.613Z,1011.59
2022-11-26T07:37:13.521Z,1011.59
2022-11-26T07:38:13.619Z,1011.56
2022-11-26T07:39:13.475Z,1011.61
2022-11-26T07:40:13.577Z,1011.63
2022-11-26T07:41:13.539Z,1011.63
2022-11-26T07:42:13.391Z,1011.64
2022-11-26T07:43:13.463Z,1011.65
2022-11-26T07:44:13.329Z,1011.62
2022-11-26T07:45:13.210Z,1011.62
2022-11-26T07:46:13.633Z,1011.65
2022-11-26T07:47:13.991Z,1011.67
2022-11-26T07:48:16.917Z,1011.63
2022-11-26T07:49:13.084Z,1011.63
2022-11-26T07:50:12.924Z,1011.68
2022-11-26T07:51:12.963Z,1011.71
2022-11-26T07:52:13.112Z,1011.76
2022-11-26T07:53:13.295Z,1011.77
2022-11-26T07:54:13.498Z,1011.81
2022-11-26T07:55:13.584Z,1011.84
2022-11-26T07:56:13.644Z,1011.89
2022-11-26T07:57:13.627Z,1011.90
2022-11-26T07:58:13.606Z,1011.96
2022-11-26T07:59:13.767Z,1011.96
2022-11-26T08:00:13.674Z,1011.94
2022-11-26T08:01:14.077Z,1011.96
2022-11-26T08:02:13.255Z,1011.97
2022-11-26T08:03:13.178Z,1012.03
2022-11-26T08:04:13.443Z,1012.00
2022-11-26T08:05:13.370Z,1012.02
2022-11-26T08:06:13.577Z,1011.99
2022-11-26T08:07:20.086Z,1011.98
2022-11-26T08:08:13.541Z,1011.97
2022-11-26T08:09:13.891Z,1011.96
2022-11-26T08:10:13.152Z,1011.97
2022-11-26T08:11:13.454Z,1011.95
2022-11-26T08:12:13.587Z,1011.96
2022-11-26T08:13:13.617Z,1011.97
2022-11-26T08:14:13.903Z,1011.97
2022-11-26T08:15:12.766Z,1011.96
2022-11-26T08:16:13.751Z,1012.00
2022-11-26T08:17:13.898Z,1011.99
2022-11-26T08:18:13.004Z,1011.98
2022-11-26T08:19:12.866Z,1011.97
2022-11-26T08:20:13.993Z,1011.95
2022-11-26T08:21:13.379Z,1011.95
2022-11-26T08:22:13.564Z,1011.98
2022-11-26T08:23:13.508Z,1011.97
2022-11-26T08:24:13.812Z,1012.01
2022-11-26T08:25:13.721Z,1012.03
2022-11-26T08:26:33.893Z,1012.01
2022-11-26T08:27:13.099Z,1012.03
2022-11-26T08:28:13.049Z,1012.05
2022-11-26T08:29:12.982Z,1012.03
2022-11-26T08:30:12.884Z,1012.05
2022-11-26T08:31:13.972Z,1012.05
2022-11-26T08:32:12.954Z,1012.02
2022-11-26T08:33:12.887Z,1012.05
2022-11-26T08:34:13.056Z,1012.05
2022-11-26T08:35:13.179Z,1011.99
2022-11-26T08:36:13.105Z,1012.04
2022-11-26T08:37:13.084Z,1012.04
2022-11-26T08:38:12.995Z,1012.00
2022-11-26T08:39:12.922Z,1011.99
2022-11-26T08:40:14.112Z,1012.02
2022-11-26T08:41:13.130Z,1012.04
2022-11-26T08:42:13.183Z,1012.03
2022-11-26T08:43:13.150Z,1011.98
2022-11-26T08:44:13.093Z,1012.03
2022-11-26T08:45:13.422Z,1012.04
2022-11-26T08:46:13.599Z,1012.06
2022-11-26T08:47:13.695Z,1012.10
2022-11-26T08:48:13.943Z,1012.08
2022-11-26T08:49:13.336Z,1012.08
2022-11-26T08:50:13.225Z,1012.02
2022-11-26T08:51:13.165Z,1012.07
2022-11-26T08:52:13.580Z,1012.09
2022-11-26T08:53:13.896Z,1012.10
2022-11-26T08:54:14.043Z,1012.11
2022-11-26T08:55:13.128Z,1012.12
2022-11-26T08:56:13.471Z,1012.18
2022-11-26T08:57:13.413Z,1012.20
2022-11-26T08:58:13.583Z,1012.17
2022-11-26T08:59:13.746Z,1012.16
2022-11-26T09:00:13.723Z,1012.17
2022-11-26T09:01:14.199Z,1012.18
2022-11-26T09:02:18.484Z,1012.22
2022-11-26T09:03:12.979Z,1012.23
2022-11-26T09:04:13.405Z,1012.26
2022-11-26T09:05:13.454Z,1012.24
2022-11-26T09:06:13.436Z,1012.29
2022-11-26T09:07:13.784Z,1012.29
2022-11-26T09:08:13.966Z,1012.27
2022-11-26T09:09:13.410Z,1012.26
2022-11-26T09:10:13.564Z,1012.32
2022-11-26T09:11:13.453Z,1012.29
2022-11-26T09:12:13.454Z,1012.28
2022-11-26T09:13:17.233Z,1012.27
2022-11-26T09:14:13.956Z,1012.26
2022-11-26T09:15:13.113Z,1012.22
2022-11-26T09:16:13.190Z,1012.23
2022-11-26T09:17:13.386Z,1012.25
2022-11-26T09:18:13.475Z,1012.26
2022-11-26T09:19:13.763Z,1012.34
2022-11-26T09:20:13.723Z,1012.31
2022-11-26T09:21:13.687Z,1012.30
2022-11-26T09:22:13.728Z,1012.26
2022-11-26T09:23:13.615Z,1012.30
2022-11-26T09:24:13.628Z,1012.30
2022-11-26T09:25:13.569Z,1012.29
2022-11-26T09:26:13.548Z,1012.29
2022-11-26T09:27:13.627Z,1012.31
2022-11-26T09:28:13.560Z,1012.37
2022-11-26T09:29:13.749Z,1012.39
2022-11-26T09:30:13.753Z,1012.43
2022-11-26T09:31:13.800Z,1012.44
2022-11-26T09:32:26.164Z,1012.51
2022-11-26T09:33:13.720Z,1012.53
2022-11-26T09:34:13.620Z,1012.53
2022-11-26T09:35:13.510Z,1012.54
2022-11-26T09:36:13.593Z,1012.57
2022-11-26T09:37:14.018Z,1012.59
2022-11-26T09:38:12.953Z,1012.53
2022-11-26T09:39:13.164Z,1012.57
2022-11-26T09:40:13.132Z,1012.58
2022-11-26T09:41:13.040Z,1012.61
2022-11-26T09:42:12.930Z,1012.60
2022-11-26T09:43:14.247Z,1012.59
2022-11-26T09:44:13.569Z,1012.61
2022-11-26T09:45:13.470Z,1012.61
2022-11-26T09:46:13.510Z,1012.59
2022-11-26T09:47:14.088Z,1012.59
2022-11-26T09:48:13.393Z,1012.61
2022-11-26T09:49:13.298Z,1012.60
2022-11-26T09:50:13.277Z,1012.62
2022-11-26T09:51:13.249Z,1012.60
2022-11-26T09:52:13.150Z,1012.64
2022-11-26T09:53:13.269Z,1012.66
2022-11-26T09:54:13.174Z,1012.62
2022-11-26T09:55:13.113Z,1012.65
2022-11-26T09:56:13.221Z,1012.68
2022-11-26T09:57:14.609Z,1012.66
2022-11-26T09:58:13.980Z,1012.67
2022-11-26T09:59:13.214Z,1012.68
2022-11-26T10:00:13.349Z,1012.68
2022-11-26T10:01:13.440Z,1012.70
2022-11-26T10:02:13.443Z,1012.64
2022-11-26T10:03:13.630Z,1012.76
2022-11-26T10:04:13.688Z,1012.76
2022-11-26T10:05:18.387Z,1012.68
2022-11-26T10:06:13.275Z,1012.65
2022-11-26T10:07:13.391Z,1012.61
2022-11-26T10:08:13.493Z,1012.66
2022-11-26T10:09:13.780Z,1012.62
2022-11-26T10:10:13.839Z,1012.64
2022-11-26T10:11:14.133Z,1012.60
2022-11-26T10:12:25.005Z,1012.59
2022-11-26T10:13:19.154Z,1012.59
2022-11-26T10:14:12.915Z,1012.61
2022-11-26T10:15:12.987Z,1012.59
2022-11-26T10:16:12.899Z,1012.61
2022-11-26T10:17:12.916Z,1012.61
2022-11-26T10:18:12.758Z,1012.62
2022-11-26T10:19:13.986Z,1012.60
2022-11-26T10:20:13.112Z,1012.62
2022-11-26T10:21:13.008Z,1012.58
2022-11-26T10:22:12.882Z,1012.62
2022-11-26T10:23:13.262Z,1012.65
2022-11-26T10:24:13.132Z,1012.65
2022-11-26T10:25:13.251Z,1012.68
2022-11-26T10:26:13.456Z,1012.66
2022-11-26T10:27:13.461Z,1012.69
2022-11-26T10:28:13.730Z,1012.68
2022-11-26T10:29:13.886Z,1012.71
2022-11-26T10:30:14.402Z,1012.69
2022-11-26T10:31:13.545Z,1012.68
2022-11-26T10:32:13.531Z,1012.67
2022-11-26T10:33:13.648Z,1012.65
2022-11-26T10:34:13.756Z,1012.66
2022-11-26T10:35:13.762Z,1012.63
2022-11-26T10:36:13.660Z,1012.61
2022-11-26T10:37:13.711Z,1012.60
2022-11-26T10:38:14.057Z,1012.60
2022-11-26T10:39:13.008Z,1012.59
2022-11-26T10:40:12.991Z,1012.59
2022-11-26T10:41:13.045Z,1012.60
2022-11-26T10:42:12.913Z,1012.57
2022-11-26T10:43:12.859Z,1012.57
2022-11-26T10:44:13.927Z,1012.59
2022-11-26T10:45:13.086Z,1012.55
2022-11-26T10:46:13.323Z,1012.58
2022-11-26T10:47:13.314Z,1012.58
2022-11-26T10:48:13.461Z,1012.57
2022-11-26T10:49:13.532Z,1012.55
2022-11-26T10:50:32.194Z,1012.58
2022-11-26T10:51:13.612Z,1012.52
2022-11-26T10:52:13.782Z,1012.55
2022-11-26T10:53:12.926Z,1012.57
2022-11-26T10:54:13.074Z,1012.58
2022-11-26T10:55:13.039Z,1012.56
2022-11-26T10:56:13.014Z,1012.55
2022-11-26T10:57:12.996Z,1012.57
2022-11-26T10:58:13.271Z,1012.57
2022-11-26T10:59:13.332Z,1012.55
2022-11-26T11:00:13.411Z,1012.58
2022-11-26T11:01:13.442Z,1012.55
2022-11-26T11:02:13.445Z,1012.60
2022-11-26T11:03:13.481Z,1012.58
2022-11-26T11:04:13.441Z,1012.58
2022-11-26T11:05:13.325Z,1012.57
2022-11-26T11:06:13.156Z,1012.55
2022-11-26T11:07:13.101Z,1012.53
2022-11-26T11:08:13.329Z,1012.54
2022-11-26T11:09:13.555Z,1012.59
2022-11-26T11:10:13.405Z,1012.57
2022-11-26T11:11:13.287Z,1012.55
2022-11-26T11:12:13.217Z,1012.54
2022-11-26T11:13:13.139Z,1012.59
2022-11-26T11:14:13.439Z,1012.56
2022-11-26T11:15:13.708Z,1012.55
2022-11-26T11:16:13.993Z,1012.53
2022-11-26T11:17:12.945Z,1012.51
2022-11-26T11:18:13.204Z,1012.51
2022-11-26T11:19:13.571Z,1012.52
2022-11-26T11:20:13.665Z,1012.46
2022-11-26T11:21:13.525Z,1012.47
2022-11-26T11:22:13.537Z,1012.46
2022-11-26T11:23:13.642Z,1012.47
2022-11-26T11:24:14.288Z,1012.46
2022-11-26T11:25:13.212Z,1012.50
2022-11-26T11:26:13.039Z,1012.47
2022-11-26T11:27:13.511Z,1012.42
2022-11-26T11:28:13.584Z,1012.44
2022-11-26T11:29:13.503Z,1012.39
2022-11-26T11:30:13.632Z,1012.40
2022-11-26T11:31:14.247Z,1012.35
2022-11-26T11:32:13.320Z,1012.37
2022-11-26T11:33:13.279Z,1012.41
2022-11-26T11:34:13.178Z,1012.41
2022-11-26T11:35:13.108Z,1012.39
2022-11-26T11:36:13.232Z,1012.39
2022-11-26T11:37:14.828Z,1012.45
2022-11-26T11:38:13.008Z,1012.41
2022-11-26T11:39:13.015Z,1012.37
2022-11-26T11:40:17.103Z,1012.40
2022-11-26T11:41:13.529Z,1012.40
2022-11-26T11:42:13.961Z,1012.35
2022-11-26T11:43:12.881Z,1012.37
2022-11-26T11:44:14.476Z,1012.37
2022-11-26T11:45:13.346Z,1012.39
2022-11-26T11:46:13.619Z,1012.37
2022-11-26T11:47:13.587Z,1012.36
2022-11-26T11:48:13.696Z,1012.30
2022-11-26T11:49:13.636Z,1012.30
2022-11-26T11:50:13.522Z,1012.28
2022-11-26T11:51:13.430Z,1012.29
2022-11-26T11:52:13.546Z,1012.30
2022-11-26T11:53:13.811Z,1012.32
2022-11-26T11:54:13.630Z,1012.32
2022-11-26T11:55:13.643Z,1012.33
2022-11-26T11:56:13.972Z,1012.33
2022-11-26T11:57:13.127Z,1012.36
2022-11-26T11:58:13.525Z,1012.29
2022-11-26T11:59:14.035Z,1012.32
2022-11-26T12:00:13.113Z,1012.29
2022-11-26T12:01:13.083Z,1012.33
2022-11-26T12:02:12.976Z,1012.39
2022-11-26T12:03:12.933Z,1012.41
2022-11-26T12:04:16.431Z,1012.40
2022-11-26T12:05:13.270Z,1012.37
2022-11-26T12:06:13.204Z,1012.38
2022-11-26T12:07:13.179Z,1012.36
2022-11-26T12:08:13.262Z,1012.37
2022-11-26T12:09:13.246Z,1012.35
2022-11-26T12:10:13.498Z,1012.37
2022-11-26T12:11:13.682Z,1012.40
2022-11-26T12:12:13.964Z,1012.41
2022-11-26T12:13:13.370Z,1012.39
2022-11-26T12:14:13.584Z,1012.41
2022-11-26T12:15:13.739Z,1012.42